sensor_id;sensor_type;location;lat;lon;timestamp;P1;durP1;ratioP1;P2;durP2;ratioP2
57744;SDS011;58941;50.168;4.410;2024-02-15T00:01:19;2.08;;;1.70;;
57744;SDS011;58941;50.168;4.410;2024-02-15T00:03:44;2.88;;;1.58;;
57744;SDS011;58941;50.168;4.410;2024-02-15T00:06:10;4.15;;;1.75;;
57744;SDS011;58941;50.168;4.410;2024-02-15T00:08:35;2.95;;;1.75;;
57744;SDS011;58941;50.168;4.410;2024-02-15T00:11:00;2.70;;;1.60;;
57744;SDS011;58941;50.168;4.410;2024-02-15T00:13:26;2.20;;;1.48;;
57744;SDS011;58941;50.168;4.410;2024-02-15T00:15:51;3.35;;;1.50;;
57744;SDS011;58941;50.168;4.410;2024-02-15T00:18:17;3.40;;;1.50;;
57744;SDS011;58941;50.168;4.410;2024-02-15T00:20:43;2.50;;;1.50;;
57744;SDS011;58941;50.168;4.410;2024-02-15T00:23:12;2.72;;;1.50;;
57744;SDS011;58941;50.168;4.410;2024-02-15T00:25:37;3.38;;;1.67;;
57744;SDS011;58941;50.168;4.410;2024-02-15T00:28:03;2.20;;;1.42;;
57744;SDS011;58941;50.168;4.410;2024-02-15T00:30:28;3.88;;;1.60;;
57744;SDS011;58941;50.168;4.410;2024-02-15T00:32:54;2.92;;;1.67;;
57744;SDS011;58941;50.168;4.410;2024-02-15T00:35:20;3.30;;;1.23;;
57744;SDS011;58941;50.168;4.410;2024-02-15T00:37:45;3.75;;;1.48;;
57744;SDS011;58941;50.168;4.410;2024-02-15T00:40:11;4.20;;;1.52;;
57744;SDS011;58941;50.168;4.410;2024-02-15T00:42:37;1.95;;;1.42;;
57744;SDS011;58941;50.168;4.410;2024-02-15T00:45:03;4.15;;;1.60;;
57744;SDS011;58941;50.168;4.410;2024-02-15T00:47:29;2.35;;;1.60;;
57744;SDS011;58941;50.168;4.410;2024-02-15T00:49:54;2.45;;;1.30;;
57744;SDS011;58941;50.168;4.410;2024-02-15T00:52:19;2.13;;;1.75;;
57744;SDS011;58941;50.168;4.410;2024-02-15T00:54:45;4.15;;;1.60;;
57744;SDS011;58941;50.168;4.410;2024-02-15T00:57:11;2.72;;;1.40;;
57744;SDS011;58941;50.168;4.410;2024-02-15T00:59:37;2.78;;;1.42;;
57744;SDS011;58941;50.168;4.410;2024-02-15T01:02:02;3.00;;;1.70;;
57744;SDS011;58941;50.168;4.410;2024-02-15T01:04:28;2.63;;;1.40;;
57744;SDS011;58941;50.168;4.410;2024-02-15T01:06:54;2.40;;;1.40;;
57744;SDS011;58941;50.168;4.410;2024-02-15T01:09:21;3.58;;;1.42;;
57744;SDS011;58941;50.168;4.410;2024-02-15T01:11:46;1.88;;;1.40;;
57744;SDS011;58941;50.168;4.410;2024-02-15T01:14:12;3.13;;;1.50;;
57744;SDS011;58941;50.168;4.410;2024-02-15T01:16:38;2.53;;;1.50;;
57744;SDS011;58941;50.168;4.410;2024-02-15T01:19:03;2.53;;;1.60;;
57744;SDS011;58941;50.168;4.410;2024-02-15T01:21:30;2.33;;;1.67;;
57744;SDS011;58941;50.168;4.410;2024-02-15T01:23:55;4.32;;;1.67;;
57744;SDS011;58941;50.168;4.410;2024-02-15T01:26:21;2.55;;;1.70;;
57744;SDS011;58941;50.168;4.410;2024-02-15T01:28:46;1.65;;;1.25;;
57744;SDS011;58941;50.168;4.410;2024-02-15T01:31:11;1.90;;;1.30;;
57744;SDS011;58941;50.168;4.410;2024-02-15T01:33:37;2.53;;;1.40;;
57744;SDS011;58941;50.168;4.410;2024-02-15T01:36:03;3.30;;;1.70;;
57744;SDS011;58941;50.168;4.410;2024-02-15T01:38:29;1.55;;;1.20;;
57744;SDS011;58941;50.168;4.410;2024-02-15T01:40:55;2.63;;;1.73;;
57744;SDS011;58941;50.168;4.410;2024-02-15T01:43:20;2.45;;;1.15;;
57744;SDS011;58941;50.168;4.410;2024-02-15T01:45:46;1.40;;;1.30;;
57744;SDS011;58941;50.168;4.410;2024-02-15T01:48:17;2.20;;;1.30;;
57744;SDS011;58941;50.168;4.410;2024-02-15T01:50:42;2.42;;;1.38;;
57744;SDS011;58941;50.168;4.410;2024-02-15T01:53:08;3.70;;;1.50;;
57744;SDS011;58941;50.168;4.410;2024-02-15T01:55:34;2.75;;;1.67;;
57744;SDS011;58941;50.168;4.410;2024-02-15T01:58:00;2.53;;;1.35;;
57744;SDS011;58941;50.168;4.410;2024-02-15T02:00:26;1.55;;;1.38;;
57744;SDS011;58941;50.168;4.410;2024-02-15T02:02:52;2.22;;;1.40;;
57744;SDS011;58941;50.168;4.410;2024-02-15T02:05:18;2.40;;;1.70;;
57744;SDS011;58941;50.168;4.410;2024-02-15T02:07:44;1.98;;;1.20;;
57744;SDS011;58941;50.168;4.410;2024-02-15T02:10:09;2.90;;;1.50;;
57744;SDS011;58941;50.168;4.410;2024-02-15T02:12:37;3.92;;;1.58;;
57744;SDS011;58941;50.168;4.410;2024-02-15T02:15:05;2.78;;;1.48;;
57744;SDS011;58941;50.168;4.410;2024-02-15T02:17:31;2.53;;;1.30;;
57744;SDS011;58941;50.168;4.410;2024-02-15T02:19:57;1.60;;;1.30;;
57744;SDS011;58941;50.168;4.410;2024-02-15T02:22:23;1.70;;;1.40;;
57744;SDS011;58941;50.168;4.410;2024-02-15T02:27:29;2.78;;;1.23;;
57744;SDS011;58941;50.168;4.410;2024-02-15T02:29:56;3.03;;;1.30;;
57744;SDS011;58941;50.168;4.410;2024-02-15T02:32:24;3.45;;;1.48;;
57744;SDS011;58941;50.168;4.410;2024-02-15T02:34:51;2.38;;;1.40;;
57744;SDS011;58941;50.168;4.410;2024-02-15T02:37:16;2.72;;;1.42;;
57744;SDS011;58941;50.168;4.410;2024-02-15T02:39:42;2.95;;;1.30;;
57744;SDS011;58941;50.168;4.410;2024-02-15T02:42:08;1.85;;;1.35;;
57744;SDS011;58941;50.168;4.410;2024-02-15T02:44:33;3.53;;;1.30;;
57744;SDS011;58941;50.168;4.410;2024-02-15T02:46:59;3.97;;;1.48;;
57744;SDS011;58941;50.168;4.410;2024-02-15T02:49:25;2.25;;;1.20;;
57744;SDS011;58941;50.168;4.410;2024-02-15T02:51:50;2.33;;;1.30;;
57744;SDS011;58941;50.168;4.410;2024-02-15T02:54:16;2.05;;;1.25;;
57744;SDS011;58941;50.168;4.410;2024-02-15T02:56:41;3.92;;;1.40;;
57744;SDS011;58941;50.168;4.410;2024-02-15T02:59:08;2.90;;;1.40;;
57744;SDS011;58941;50.168;4.410;2024-02-15T03:01:34;2.33;;;1.40;;
57744;SDS011;58941;50.168;4.410;2024-02-15T03:03:59;2.63;;;1.45;;
57744;SDS011;58941;50.168;4.410;2024-02-15T03:06:25;3.88;;;1.45;;
57744;SDS011;58941;50.168;4.410;2024-02-15T03:08:50;2.42;;;1.23;;
57744;SDS011;58941;50.168;4.410;2024-02-15T03:11:19;1.80;;;1.42;;
57744;SDS011;58941;50.168;4.410;2024-02-15T03:13:45;2.45;;;1.55;;
57744;SDS011;58941;50.168;4.410;2024-02-15T03:16:10;2.03;;;1.40;;
57744;SDS011;58941;50.168;4.410;2024-02-15T03:18:36;3.10;;;1.50;;
57744;SDS011;58941;50.168;4.410;2024-02-15T03:21:02;4.70;;;1.70;;
57744;SDS011;58941;50.168;4.410;2024-02-15T03:23:27;2.50;;;1.20;;
57744;SDS011;58941;50.168;4.410;2024-02-15T03:25:54;1.75;;;1.30;;
57744;SDS011;58941;50.168;4.410;2024-02-15T03:28:19;2.70;;;1.40;;
57744;SDS011;58941;50.168;4.410;2024-02-15T03:30:46;2.55;;;1.52;;
57744;SDS011;58941;50.168;4.410;2024-02-15T03:33:12;1.70;;;1.30;;
57744;SDS011;58941;50.168;4.410;2024-02-15T03:35:38;2.85;;;1.20;;
57744;SDS011;58941;50.168;4.410;2024-02-15T03:38:04;1.52;;;1.30;;
57744;SDS011;58941;50.168;4.410;2024-02-15T03:40:30;3.53;;;1.10;;
57744;SDS011;58941;50.168;4.410;2024-02-15T03:42:57;1.10;;;1.00;;
57744;SDS011;58941;50.168;4.410;2024-02-15T03:45:22;2.63;;;1.20;;
57744;SDS011;58941;50.168;4.410;2024-02-15T03:47:50;1.90;;;1.20;;
57744;SDS011;58941;50.168;4.410;2024-02-15T03:50:16;1.80;;;1.13;;
57744;SDS011;58941;50.168;4.410;2024-02-15T03:52:41;2.35;;;1.13;;
57744;SDS011;58941;50.168;4.410;2024-02-15T03:55:07;2.13;;;1.20;;
57744;SDS011;58941;50.168;4.410;2024-02-15T03:57:33;4.55;;;1.40;;
57744;SDS011;58941;50.168;4.410;2024-02-15T03:59:59;2.28;;;1.10;;
57744;SDS011;58941;50.168;4.410;2024-02-15T04:02:25;2.08;;;1.35;;
57744;SDS011;58941;50.168;4.410;2024-02-15T04:04:55;1.48;;;1.20;;
57744;SDS011;58941;50.168;4.410;2024-02-15T04:07:24;2.47;;;1.33;;
57744;SDS011;58941;50.168;4.410;2024-02-15T04:09:52;3.17;;;1.60;;
57744;SDS011;58941;50.168;4.410;2024-02-15T04:12:17;2.20;;;1.20;;
57744;SDS011;58941;50.168;4.410;2024-02-15T04:14:43;2.30;;;1.10;;
57744;SDS011;58941;50.168;4.410;2024-02-15T04:17:10;2.78;;;1.00;;
57744;SDS011;58941;50.168;4.410;2024-02-15T04:19:36;2.03;;;1.15;;
57744;SDS011;58941;50.168;4.410;2024-02-15T04:22:02;2.10;;;1.25;;
57744;SDS011;58941;50.168;4.410;2024-02-15T04:24:32;3.15;;;1.13;;
57744;SDS011;58941;50.168;4.410;2024-02-15T04:26:58;1.50;;;1.08;;
57744;SDS011;58941;50.168;4.410;2024-02-15T04:29:24;1.95;;;1.35;;
57744;SDS011;58941;50.168;4.410;2024-02-15T04:31:49;2.83;;;1.23;;
57744;SDS011;58941;50.168;4.410;2024-02-15T04:34:17;1.25;;;1.13;;
57744;SDS011;58941;50.168;4.410;2024-02-15T04:36:47;2.40;;;1.17;;
57744;SDS011;58941;50.168;4.410;2024-02-15T04:39:19;2.22;;;1.30;;
57744;SDS011;58941;50.168;4.410;2024-02-15T04:41:52;2.30;;;1.30;;
57744;SDS011;58941;50.168;4.410;2024-02-15T04:44:18;2.65;;;1.30;;
57744;SDS011;58941;50.168;4.410;2024-02-15T04:46:47;2.72;;;1.15;;
57744;SDS011;58941;50.168;4.410;2024-02-15T04:49:14;3.10;;;1.40;;
57744;SDS011;58941;50.168;4.410;2024-02-15T04:51:40;2.72;;;1.00;;
57744;SDS011;58941;50.168;4.410;2024-02-15T04:54:09;1.98;;;1.20;;
57744;SDS011;58941;50.168;4.410;2024-02-15T04:56:40;1.50;;;1.08;;
57744;SDS011;58941;50.168;4.410;2024-02-15T04:59:06;2.55;;;1.17;;
57744;SDS011;58941;50.168;4.410;2024-02-15T05:01:37;2.00;;;1.15;;
57744;SDS011;58941;50.168;4.410;2024-02-15T05:04:03;2.03;;;0.90;;
57744;SDS011;58941;50.168;4.410;2024-02-15T05:06:32;1.33;;;1.05;;
57744;SDS011;58941;50.168;4.410;2024-02-15T05:08:58;1.98;;;0.98;;
57744;SDS011;58941;50.168;4.410;2024-02-15T05:11:25;1.13;;;1.00;;
57744;SDS011;58941;50.168;4.410;2024-02-15T05:13:51;4.18;;;1.33;;
57744;SDS011;58941;50.168;4.410;2024-02-15T05:16:16;1.73;;;1.13;;
57744;SDS011;58941;50.168;4.410;2024-02-15T05:18:42;1.52;;;1.00;;
57744;SDS011;58941;50.168;4.410;2024-02-15T05:21:07;3.05;;;1.30;;
57744;SDS011;58941;50.168;4.410;2024-02-15T05:23:36;1.30;;;0.90;;
57744;SDS011;58941;50.168;4.410;2024-02-15T05:26:02;2.75;;;1.10;;
57744;SDS011;58941;50.168;4.410;2024-02-15T05:28:29;2.05;;;1.00;;
57744;SDS011;58941;50.168;4.410;2024-02-15T05:31:10;2.83;;;1.05;;
57744;SDS011;58941;50.168;4.410;2024-02-15T05:33:39;2.75;;;1.20;;
57744;SDS011;58941;50.168;4.410;2024-02-15T05:36:10;4.38;;;1.10;;
57744;SDS011;58941;50.168;4.410;2024-02-15T05:38:36;3.35;;;1.13;;
57744;SDS011;58941;50.168;4.410;2024-02-15T05:41:02;2.13;;;1.00;;
57744;SDS011;58941;50.168;4.410;2024-02-15T05:43:28;2.58;;;1.20;;
57744;SDS011;58941;50.168;4.410;2024-02-15T05:45:54;1.45;;;1.08;;
57744;SDS011;58941;50.168;4.410;2024-02-15T05:48:19;2.35;;;1.20;;
57744;SDS011;58941;50.168;4.410;2024-02-15T05:50:46;1.67;;;1.13;;
57744;SDS011;58941;50.168;4.410;2024-02-15T05:53:12;1.70;;;1.20;;
57744;SDS011;58941;50.168;4.410;2024-02-15T05:55:37;1.40;;;1.08;;
57744;SDS011;58941;50.168;4.410;2024-02-15T05:58:06;1.65;;;1.02;;
57744;SDS011;58941;50.168;4.410;2024-02-15T06:00:34;1.83;;;1.23;;
57744;SDS011;58941;50.168;4.410;2024-02-15T06:02:59;1.60;;;1.13;;
57744;SDS011;58941;50.168;4.410;2024-02-15T06:05:28;2.70;;;1.00;;
57744;SDS011;58941;50.168;4.410;2024-02-15T06:07:54;2.25;;;1.00;;
57744;SDS011;58941;50.168;4.410;2024-02-15T06:10:19;1.17;;;0.88;;
57744;SDS011;58941;50.168;4.410;2024-02-15T06:12:45;2.35;;;1.30;;
57744;SDS011;58941;50.168;4.410;2024-02-15T06:15:10;1.80;;;1.20;;
57744;SDS011;58941;50.168;4.410;2024-02-15T06:17:40;1.42;;;0.93;;
57744;SDS011;58941;50.168;4.410;2024-02-15T06:20:10;2.85;;;1.00;;
57744;SDS011;58941;50.168;4.410;2024-02-15T06:22:37;1.75;;;1.05;;
57744;SDS011;58941;50.168;4.410;2024-02-15T06:25:03;1.90;;;1.00;;
57744;SDS011;58941;50.168;4.410;2024-02-15T06:27:29;1.60;;;1.00;;
57744;SDS011;58941;50.168;4.410;2024-02-15T06:29:54;0.80;;;0.80;;
57744;SDS011;58941;50.168;4.410;2024-02-15T06:32:38;2.00;;;0.93;;
57744;SDS011;58941;50.168;4.410;2024-02-15T06:35:22;1.25;;;1.02;;
57744;SDS011;58941;50.168;4.410;2024-02-15T06:38:06;1.30;;;1.00;;
57744;SDS011;58941;50.168;4.410;2024-02-15T06:40:50;1.35;;;0.88;;
57744;SDS011;58941;50.168;4.410;2024-02-15T06:43:15;2.25;;;1.02;;
57744;SDS011;58941;50.168;4.410;2024-02-15T06:45:41;1.50;;;0.82;;
57744;SDS011;58941;50.168;4.410;2024-02-15T06:48:11;1.77;;;1.20;;
57744;SDS011;58941;50.168;4.410;2024-02-15T06:50:37;1.63;;;0.80;;
57744;SDS011;58941;50.168;4.410;2024-02-15T06:53:03;1.92;;;1.20;;
57744;SDS011;58941;50.168;4.410;2024-02-15T06:55:28;1.45;;;1.02;;
57744;SDS011;58941;50.168;4.410;2024-02-15T06:57:54;1.08;;;0.82;;
57744;SDS011;58941;50.168;4.410;2024-02-15T07:00:20;1.23;;;0.90;;
57744;SDS011;58941;50.168;4.410;2024-02-15T07:02:46;2.17;;;1.10;;
57744;SDS011;58941;50.168;4.410;2024-02-15T07:05:13;2.85;;;1.10;;
57744;SDS011;58941;50.168;4.410;2024-02-15T07:07:39;1.30;;;1.00;;
57744;SDS011;58941;50.168;4.410;2024-02-15T07:10:05;1.33;;;0.98;;
57744;SDS011;58941;50.168;4.410;2024-02-15T07:12:31;1.33;;;1.00;;
57744;SDS011;58941;50.168;4.410;2024-02-15T07:14:57;1.63;;;0.98;;
57744;SDS011;58941;50.168;4.410;2024-02-15T07:17:23;1.65;;;1.08;;
57744;SDS011;58941;50.168;4.410;2024-02-15T07:19:48;1.60;;;1.00;;
57744;SDS011;58941;50.168;4.410;2024-02-15T07:22:17;2.17;;;1.05;;
57744;SDS011;58941;50.168;4.410;2024-02-15T07:24:42;1.73;;;1.00;;
57744;SDS011;58941;50.168;4.410;2024-02-15T07:27:08;1.35;;;0.90;;
57744;SDS011;58941;50.168;4.410;2024-02-15T07:29:35;1.25;;;1.00;;
57744;SDS011;58941;50.168;4.410;2024-02-15T07:32:05;2.20;;;0.90;;
57744;SDS011;58941;50.168;4.410;2024-02-15T07:34:31;1.08;;;0.80;;
57744;SDS011;58941;50.168;4.410;2024-02-15T07:36:58;1.35;;;0.93;;
57744;SDS011;58941;50.168;4.410;2024-02-15T07:39:24;1.38;;;0.82;;
57744;SDS011;58941;50.168;4.410;2024-02-15T07:41:53;2.28;;;0.77;;
57744;SDS011;58941;50.168;4.410;2024-02-15T07:44:19;1.92;;;1.02;;
57744;SDS011;58941;50.168;4.410;2024-02-15T07:46:45;1.25;;;0.90;;
57744;SDS011;58941;50.168;4.410;2024-02-15T07:49:11;1.50;;;1.00;;
57744;SDS011;58941;50.168;4.410;2024-02-15T07:51:36;1.50;;;0.77;;
57744;SDS011;58941;50.168;4.410;2024-02-15T07:54:02;2.80;;;0.85;;
57744;SDS011;58941;50.168;4.410;2024-02-15T07:56:28;1.65;;;0.90;;
57744;SDS011;58941;50.168;4.410;2024-02-15T07:58:54;1.95;;;1.02;;
57744;SDS011;58941;50.168;4.410;2024-02-15T08:01:19;1.30;;;1.10;;
57744;SDS011;58941;50.168;4.410;2024-02-15T08:03:48;1.20;;;0.75;;
57744;SDS011;58941;50.168;4.410;2024-02-15T08:06:14;1.35;;;0.90;;
57744;SDS011;58941;50.168;4.410;2024-02-15T08:08:43;1.27;;;1.00;;
57744;SDS011;58941;50.168;4.410;2024-02-15T08:11:12;1.95;;;1.13;;
57744;SDS011;58941;50.168;4.410;2024-02-15T08:13:44;2.03;;;1.10;;
57744;SDS011;58941;50.168;4.410;2024-02-15T08:16:10;1.45;;;1.00;;
57744;SDS011;58941;50.168;4.410;2024-02-15T08:18:38;1.48;;;0.98;;
57744;SDS011;58941;50.168;4.410;2024-02-15T08:21:04;1.30;;;0.80;;
57744;SDS011;58941;50.168;4.410;2024-02-15T08:23:30;1.77;;;0.88;;
57744;SDS011;58941;50.168;4.410;2024-02-15T08:25:56;1.30;;;0.88;;
57744;SDS011;58941;50.168;4.410;2024-02-15T08:28:23;1.63;;;0.85;;
57744;SDS011;58941;50.168;4.410;2024-02-15T08:30:48;1.00;;;0.90;;
57744;SDS011;58941;50.168;4.410;2024-02-15T08:33:13;1.27;;;0.85;;
57744;SDS011;58941;50.168;4.410;2024-02-15T08:35:39;2.35;;;0.90;;
57744;SDS011;58941;50.168;4.410;2024-02-15T08:38:06;3.20;;;1.02;;
57744;SDS011;58941;50.168;4.410;2024-02-15T08:40:32;3.55;;;1.05;;
57744;SDS011;58941;50.168;4.410;2024-02-15T08:42:58;1.83;;;1.20;;
57744;SDS011;58941;50.168;4.410;2024-02-15T08:45:23;1.55;;;1.20;;
57744;SDS011;58941;50.168;4.410;2024-02-15T08:47:49;5.10;;;1.20;;
57744;SDS011;58941;50.168;4.410;2024-02-15T08:50:18;1.80;;;1.10;;
57744;SDS011;58941;50.168;4.410;2024-02-15T08:52:44;2.80;;;1.10;;
57744;SDS011;58941;50.168;4.410;2024-02-15T08:55:09;3.97;;;1.20;;
57744;SDS011;58941;50.168;4.410;2024-02-15T08:57:36;3.13;;;1.20;;
57744;SDS011;58941;50.168;4.410;2024-02-15T09:00:02;3.10;;;1.85;;
57744;SDS011;58941;50.168;4.410;2024-02-15T09:02:31;4.55;;;1.00;;
57744;SDS011;58941;50.168;4.410;2024-02-15T09:04:58;1.83;;;1.10;;
57744;SDS011;58941;50.168;4.410;2024-02-15T09:07:24;4.65;;;1.40;;
57744;SDS011;58941;50.168;4.410;2024-02-15T09:09:49;2.28;;;1.15;;
57744;SDS011;58941;50.168;4.410;2024-02-15T09:12:15;1.50;;;1.20;;
57744;SDS011;58941;50.168;4.410;2024-02-15T09:14:40;3.95;;;1.30;;
57744;SDS011;58941;50.168;4.410;2024-02-15T09:17:06;2.33;;;1.23;;
57744;SDS011;58941;50.168;4.410;2024-02-15T09:19:33;2.58;;;1.20;;
57744;SDS011;58941;50.168;4.410;2024-02-15T09:21:58;2.17;;;1.30;;
57744;SDS011;58941;50.168;4.410;2024-02-15T09:24:24;3.03;;;1.35;;
57744;SDS011;58941;50.168;4.410;2024-02-15T09:26:50;1.70;;;1.00;;
57744;SDS011;58941;50.168;4.410;2024-02-15T09:29:18;3.35;;;1.33;;
57744;SDS011;58941;50.168;4.410;2024-02-15T09:31:46;4.90;;;1.40;;
57744;SDS011;58941;50.168;4.410;2024-02-15T09:34:12;1.95;;;0.98;;
57744;SDS011;58941;50.168;4.410;2024-02-15T09:36:39;1.55;;;0.85;;
57744;SDS011;58941;50.168;4.410;2024-02-15T09:39:08;1.67;;;1.25;;
57744;SDS011;58941;50.168;4.410;2024-02-15T09:41:39;1.33;;;1.00;;
57744;SDS011;58941;50.168;4.410;2024-02-15T09:44:09;2.85;;;1.20;;
57744;SDS011;58941;50.168;4.410;2024-02-15T09:49:07;4.07;;;1.20;;
57744;SDS011;58941;50.168;4.410;2024-02-15T09:51:37;3.60;;;1.40;;
57744;SDS011;58941;50.168;4.410;2024-02-15T09:54:33;2.20;;;1.10;;
57744;SDS011;58941;50.168;4.410;2024-02-15T09:57:01;2.95;;;1.20;;
57744;SDS011;58941;50.168;4.410;2024-02-15T09:59:30;2.60;;;1.17;;
57744;SDS011;58941;50.168;4.410;2024-02-15T10:01:58;5.18;;;1.42;;
57744;SDS011;58941;50.168;4.410;2024-02-15T10:04:26;4.38;;;1.27;;
57744;SDS011;58941;50.168;4.410;2024-02-15T10:06:52;3.78;;;1.40;;
57744;SDS011;58941;50.168;4.410;2024-02-15T10:09:25;2.28;;;1.25;;
57744;SDS011;58941;50.168;4.410;2024-02-15T10:11:58;3.13;;;1.17;;
57744;SDS011;58941;50.168;4.410;2024-02-15T10:14:25;1.77;;;1.10;;
57744;SDS011;58941;50.168;4.410;2024-02-15T10:16:52;3.13;;;1.40;;
57744;SDS011;58941;50.168;4.410;2024-02-15T10:19:19;3.42;;;1.13;;
57744;SDS011;58941;50.168;4.410;2024-02-15T10:21:51;2.72;;;1.30;;
57744;SDS011;58941;50.168;4.410;2024-02-15T10:24:17;2.78;;;1.10;;
57744;SDS011;58941;50.168;4.410;2024-02-15T10:26:45;1.75;;;1.08;;
57744;SDS011;58941;50.168;4.410;2024-02-15T10:29:14;3.60;;;1.20;;
57744;SDS011;58941;50.168;4.410;2024-02-15T10:31:52;2.05;;;0.95;;
57744;SDS011;58941;50.168;4.410;2024-02-15T10:34:19;2.53;;;1.10;;
57744;SDS011;58941;50.168;4.410;2024-02-15T10:36:45;1.75;;;1.10;;
57744;SDS011;58941;50.168;4.410;2024-02-15T10:39:15;3.28;;;1.50;;
57744;SDS011;58941;50.168;4.410;2024-02-15T10:41:53;3.08;;;0.98;;
57744;SDS011;58941;50.168;4.410;2024-02-15T10:44:20;3.03;;;1.20;;
57744;SDS011;58941;50.168;4.410;2024-02-15T10:46:47;1.92;;;1.25;;
57744;SDS011;58941;50.168;4.410;2024-02-15T10:49:19;3.97;;;1.30;;
57744;SDS011;58941;50.168;4.410;2024-02-15T10:51:54;2.65;;;1.30;;
57744;SDS011;58941;50.168;4.410;2024-02-15T10:54:32;3.20;;;1.67;;
57744;SDS011;58941;50.168;4.410;2024-02-15T10:57:06;4.00;;;1.20;;
57744;SDS011;58941;50.168;4.410;2024-02-15T10:59:34;4.25;;;1.20;;
57744;SDS011;58941;50.168;4.410;2024-02-15T11:04:40;4.18;;;1.10;;
57744;SDS011;58941;50.168;4.410;2024-02-15T11:07:09;1.95;;;1.20;;
57744;SDS011;58941;50.168;4.410;2024-02-15T11:09:37;1.48;;;1.08;;
57744;SDS011;58941;50.168;4.410;2024-02-15T11:12:06;2.38;;;1.20;;
57744;SDS011;58941;50.168;4.410;2024-02-15T11:14:33;1.88;;;1.20;;
57744;SDS011;58941;50.168;4.410;2024-02-15T11:17:01;3.80;;;1.42;;
57744;SDS011;58941;50.168;4.410;2024-02-15T11:21:58;2.40;;;1.05;;
57744;SDS011;58941;50.168;4.410;2024-02-15T11:24:27;1.60;;;1.10;;
57744;SDS011;58941;50.168;4.410;2024-02-15T11:26:57;1.75;;;1.05;;
57744;SDS011;58941;50.168;4.410;2024-02-15T11:32:08;2.22;;;1.25;;
57744;SDS011;58941;50.168;4.410;2024-02-15T11:34:43;2.50;;;1.23;;
57744;SDS011;58941;50.168;4.410;2024-02-15T11:39:58;1.65;;;1.20;;
57744;SDS011;58941;50.168;4.410;2024-02-15T11:42:28;2.42;;;1.05;;
57744;SDS011;58941;50.168;4.410;2024-02-15T11:45:15;2.28;;;1.33;;
57744;SDS011;58941;50.168;4.410;2024-02-15T11:47:47;3.88;;;1.05;;
57744;SDS011;58941;50.168;4.410;2024-02-15T11:50:14;1.48;;;0.90;;
57744;SDS011;58941;50.168;4.410;2024-02-15T11:52:41;2.55;;;1.13;;
57744;SDS011;58941;50.168;4.410;2024-02-15T11:55:11;2.53;;;1.60;;
57744;SDS011;58941;50.168;4.410;2024-02-15T11:58:01;4.50;;;1.00;;
57744;SDS011;58941;50.168;4.410;2024-02-15T12:00:36;1.50;;;0.95;;
57744;SDS011;58941;50.168;4.410;2024-02-15T12:03:21;3.38;;;1.20;;
57744;SDS011;58941;50.168;4.410;2024-02-15T12:06:06;1.83;;;1.05;;
57744;SDS011;58941;50.168;4.410;2024-02-15T12:08:52;3.15;;;1.40;;
57744;SDS011;58941;50.168;4.410;2024-02-15T12:11:38;2.33;;;0.98;;
57744;SDS011;58941;50.168;4.410;2024-02-15T12:14:22;1.52;;;1.08;;
57744;SDS011;58941;50.168;4.410;2024-02-15T12:17:07;1.65;;;1.00;;
57744;SDS011;58941;50.168;4.410;2024-02-15T12:19:52;2.65;;;1.48;;
57744;SDS011;58941;50.168;4.410;2024-02-15T12:22:23;2.13;;;1.10;;
57744;SDS011;58941;50.168;4.410;2024-02-15T12:24:55;2.45;;;1.10;;
57744;SDS011;58941;50.168;4.410;2024-02-15T12:27:24;1.75;;;1.10;;
57744;SDS011;58941;50.168;4.410;2024-02-15T12:29:59;2.50;;;0.90;;
57744;SDS011;58941;50.168;4.410;2024-02-15T12:32:26;2.17;;;1.08;;
57744;SDS011;58941;50.168;4.410;2024-02-15T12:34:53;3.58;;;1.08;;
57744;SDS011;58941;50.168;4.410;2024-02-15T12:37:22;1.75;;;0.95;;
57744;SDS011;58941;50.168;4.410;2024-02-15T12:39:50;2.17;;;1.08;;
57744;SDS011;58941;50.168;4.410;2024-02-15T12:42:16;1.90;;;1.10;;
57744;SDS011;58941;50.168;4.410;2024-02-15T12:44:46;1.20;;;0.90;;
57744;SDS011;58941;50.168;4.410;2024-02-15T12:47:22;1.38;;;0.88;;
57744;SDS011;58941;50.168;4.410;2024-02-15T12:49:48;1.63;;;0.82;;
57744;SDS011;58941;50.168;4.410;2024-02-15T12:52:35;2.33;;;1.00;;
57744;SDS011;58941;50.168;4.410;2024-02-15T12:55:07;1.92;;;0.90;;
57744;SDS011;58941;50.168;4.410;2024-02-15T12:57:34;1.67;;;0.70;;
57744;SDS011;58941;50.168;4.410;2024-02-15T13:00:02;1.15;;;0.90;;
57744;SDS011;58941;50.168;4.410;2024-02-15T13:02:37;1.85;;;1.35;;
57744;SDS011;58941;50.168;4.410;2024-02-15T13:05:16;1.60;;;1.00;;
57744;SDS011;58941;50.168;4.410;2024-02-15T13:07:57;1.40;;;0.90;;
57744;SDS011;58941;50.168;4.410;2024-02-15T13:10:24;1.48;;;0.80;;
57744;SDS011;58941;50.168;4.410;2024-02-15T13:12:51;3.10;;;1.05;;
57744;SDS011;58941;50.168;4.410;2024-02-15T13:15:17;1.05;;;0.80;;
57744;SDS011;58941;50.168;4.410;2024-02-15T13:17:45;1.27;;;0.93;;
57744;SDS011;58941;50.168;4.410;2024-02-15T13:20:11;1.42;;;0.82;;
57744;SDS011;58941;50.168;4.410;2024-02-15T13:22:42;2.25;;;1.15;;
57744;SDS011;58941;50.168;4.410;2024-02-15T13:25:13;2.45;;;0.90;;
57744;SDS011;58941;50.168;4.410;2024-02-15T13:27:42;1.45;;;0.80;;
57744;SDS011;58941;50.168;4.410;2024-02-15T13:30:09;1.40;;;0.77;;
57744;SDS011;58941;50.168;4.410;2024-02-15T13:32:35;3.05;;;1.30;;
57744;SDS011;58941;50.168;4.410;2024-02-15T13:35:03;1.67;;;1.00;;
57744;SDS011;58941;50.168;4.410;2024-02-15T13:37:33;1.52;;;0.80;;
57744;SDS011;58941;50.168;4.410;2024-02-15T13:39:58;1.92;;;0.90;;
57744;SDS011;58941;50.168;4.410;2024-02-15T13:42:24;2.35;;;0.90;;
57744;SDS011;58941;50.168;4.410;2024-02-15T13:44:50;1.55;;;0.90;;
57744;SDS011;58941;50.168;4.410;2024-02-15T13:47:15;1.02;;;0.70;;
57744;SDS011;58941;50.168;4.410;2024-02-15T13:49:42;0.70;;;0.63;;
57744;SDS011;58941;50.168;4.410;2024-02-15T13:52:08;1.73;;;0.90;;
57744;SDS011;58941;50.168;4.410;2024-02-15T13:54:37;3.33;;;1.00;;
57744;SDS011;58941;50.168;4.410;2024-02-15T13:57:03;1.77;;;0.95;;
57744;SDS011;58941;50.168;4.410;2024-02-15T13:59:28;1.25;;;0.90;;
57744;SDS011;58941;50.168;4.410;2024-02-15T14:01:55;1.35;;;0.88;;
57744;SDS011;58941;50.168;4.410;2024-02-15T14:04:21;0.93;;;0.85;;
57744;SDS011;58941;50.168;4.410;2024-02-15T14:06:47;3.05;;;1.05;;
57744;SDS011;58941;50.168;4.410;2024-02-15T14:09:15;1.67;;;0.90;;
57744;SDS011;58941;50.168;4.410;2024-02-15T14:11:43;1.17;;;0.90;;
57744;SDS011;58941;50.168;4.410;2024-02-15T14:14:09;2.22;;;1.02;;
57744;SDS011;58941;50.168;4.410;2024-02-15T14:16:36;1.55;;;1.00;;
57744;SDS011;58941;50.168;4.410;2024-02-15T14:19:03;2.00;;;0.90;;
57744;SDS011;58941;50.168;4.410;2024-02-15T14:21:29;1.65;;;0.80;;
57744;SDS011;58941;50.168;4.410;2024-02-15T14:23:59;1.10;;;0.85;;
57744;SDS011;58941;50.168;4.410;2024-02-15T14:26:25;3.53;;;0.80;;
57744;SDS011;58941;50.168;4.410;2024-02-15T14:28:53;2.00;;;1.00;;
57744;SDS011;58941;50.168;4.410;2024-02-15T14:31:19;1.67;;;1.00;;
57744;SDS011;58941;50.168;4.410;2024-02-15T14:34:03;3.15;;;0.80;;
57744;SDS011;58941;50.168;4.410;2024-02-15T14:36:29;1.45;;;0.80;;
57744;SDS011;58941;50.168;4.410;2024-02-15T14:38:55;1.33;;;0.63;;
57744;SDS011;58941;50.168;4.410;2024-02-15T14:41:21;1.05;;;0.90;;
57744;SDS011;58941;50.168;4.410;2024-02-15T14:43:48;1.13;;;0.80;;
57744;SDS011;58941;50.168;4.410;2024-02-15T14:46:14;1.35;;;1.00;;
57744;SDS011;58941;50.168;4.410;2024-02-15T14:48:41;1.13;;;0.90;;
57744;SDS011;58941;50.168;4.410;2024-02-15T14:51:09;1.02;;;0.70;;
57744;SDS011;58941;50.168;4.410;2024-02-15T14:53:35;1.10;;;0.90;;
57744;SDS011;58941;50.168;4.410;2024-02-15T14:56:01;1.95;;;0.85;;
57744;SDS011;58941;50.168;4.410;2024-02-15T14:58:31;2.17;;;0.80;;
57744;SDS011;58941;50.168;4.410;2024-02-15T15:00:57;1.77;;;0.80;;
57744;SDS011;58941;50.168;4.410;2024-02-15T15:03:26;1.88;;;1.00;;
57744;SDS011;58941;50.168;4.410;2024-02-15T15:05:56;1.45;;;0.82;;
57744;SDS011;58941;50.168;4.410;2024-02-15T15:08:41;1.65;;;0.70;;